Time;durP1;ratioP1;P1;durP2;ratioP2;P2;SDS_P1;SDS_P2;PMS_P1;PMS_P2;Temp;Humidity;BMP_temperature;BMP_pressure;BME280_temperature;BME280_humidity;BME280_pressure;Samples;Min_cycle;Max_cycle;Signal;HPM_P1;HPM_P2
2021/09/27 00:01:35;;;;;;;23.83;18.17;;;;;;;14.44;80.70;100485.78;2107524;83;21061;-78
2021/09/27 00:04:36;;;;;;;21.20;18.00;;;;;;;14.40;81.05;100490.36;2099146;83;21026;-78
2021/09/27 00:07:38;;;;;;;22.17;18.02;;;;;;;14.37;80.99;100488.88;2106020;83;20982;-78
2021/09/27 00:10:50;;;;;;;22.65;18.73;;;;;;;14.33;81.10;100485.75;2108533;83;20991;-77
2021/09/27 00:13:56;;;;;;;21.23;17.82;;;;;;;14.30;81.12;100498.13;2105368;83;21076;-78
2021/09/27 00:17:00;;;;;;;24.77;18.57;;;;;;;14.27;81.60;100493.12;2110048;83;21017;-78
2021/09/27 00:20:02;;;;;;;24.05;17.92;;;;;;;14.25;81.67;100489.01;2104691;83;21001;-79
2021/09/27 00:23:03;;;;;;;26.70;21.37;;;;;;;14.22;81.76;100486.67;2110213;83;21026;-77
2021/09/27 00:26:06;;;;;;;22.93;18.62;;;;;;;14.18;81.88;100490.73;2105945;83;21572;-78
2021/09/27 00:29:08;;;;;;;24.07;18.45;;;;;;;14.14;81.87;100486.27;2110297;83;21037;-78
2021/09/27 00:32:09;;;;;;;24.45;19.57;;;;;;;14.10;81.92;100479.11;2101763;83;21081;-78
2021/09/27 00:35:16;;;;;;;24.90;20.00;;;;;;;14.09;81.89;100476.64;2104278;83;21045;-79
2021/09/27 00:38:18;;;;;;;27.13;20.10;;;;;;;14.05;82.07;100481.99;2106270;83;21048;-77
2021/09/27 00:41:22;;;;;;;25.70;19.48;;;;;;;14.01;82.06;100488.20;2107352;83;21665;-77
2021/09/27 00:44:24;;;;;;;26.20;20.62;;;;;;;13.99;82.39;100486.72;2104158;83;20998;-77
2021/09/27 00:47:25;;;;;;;25.20;20.90;;;;;;;13.94;82.16;100478.42;2101780;83;21045;-78
2021/09/27 00:50:31;;;;;;;22.60;19.80;;;;;;;13.91;82.34;100483.64;2107500;83;21004;-78
2021/09/27 00:54:02;;;;;;;22.95;19.27;;;;;;;13.87;82.35;100480.48;2105061;83;21523;-79
2021/09/27 00:57:12;;;;;;;28.83;22.35;;;;;;;13.84;82.76;100485.34;2101549;83;21029;-79
2021/09/27 01:00:19;;;;;;;29.75;22.15;;;;;;;13.79;82.81;100483.20;2099064;83;21113;-78
2021/09/27 01:03:22;;;;;;;29.10;22.90;;;;;;;13.77;83.18;100482.58;2104365;83;21021;-77
2021/09/27 01:06:40;;;;;;;29.25;22.52;;;;;;;13.75;82.90;100481.92;2105222;83;21055;-80
2021/09/27 01:10:05;;;;;;;26.85;22.07;;;;;;;13.73;82.96;100475.11;2105877;83;21064;-76
2021/09/27 01:13:41;;;;;;;27.67;21.68;;;;;;;13.72;83.11;100480.13;2102720;83;21046;-79
2021/09/27 01:17:11;;;;;;;30.55;23.38;;;;;;;13.69;83.01;100477.30;2101567;83;21032;-78
2021/09/27 01:20:48;;;;;;;31.40;24.12;;;;;;;13.68;83.18;100478.30;2103243;83;21029;-78
2021/09/27 01:24:04;;;;;;;30.17;22.62;;;;;;;13.64;83.48;100465.83;2110905;83;21058;-77
2021/09/27 01:27:32;;;;;;;26.95;23.47;;;;;;;13.59;83.52;100469.53;2102498;83;21040;-78
2021/09/27 01:30:57;;;;;;;30.40;23.62;;;;;;;13.55;83.54;100468.75;2101514;83;20975;-78
2021/09/27 01:34:19;;;;;;;29.72;21.97;;;;;;;13.50;83.81;100465.27;2100962;83;21038;-78
2021/09/27 01:38:07;;;;;;;29.63;23.90;;;;;;;13.48;83.89;100463.28;2103627;83;20979;-78
2021/09/27 01:41:35;;;;;;;29.90;23.00;;;;;;;13.44;83.73;100462.81;2106737;83;21080;-78
2021/09/27 01:44:51;;;;;;;29.63;23.27;;;;;;;13.40;84.31;100460.19;2103820;83;21042;-77
2021/09/27 01:48:07;;;;;;;35.83;25.68;;;;;;;13.36;84.20;100462.03;2081270;83;21062;-78
2021/09/27 01:51:34;;;;;;;28.80;23.50;;;;;;;13.30;84.37;100459.57;2098177;83;20986;-78
2021/09/27 01:54:47;;;;;;;30.62;24.55;;;;;;;13.25;84.38;100456.56;2022552;87;21549;-77
2021/09/27 01:58:08;;;;;;;34.78;26.35;;;;;;;13.23;84.48;100466.56;2023475;87;21022;-78
2021/09/27 02:01:20;;;;;;;30.30;25.85;;;;;;;13.19;84.38;100466.09;2103975;83;20988;-79
2021/09/27 02:04:49;;;;;;;30.00;25.60;;;;;;;13.16;84.30;100473.11;2104293;83;20982;-80
2021/09/27 02:08:06;;;;;;;32.78;26.35;;;;;;;13.18;84.31;100469.77;2104348;83;21062;-78
2021/09/27 02:11:26;;;;;;;31.37;25.23;;;;;;;13.17;84.31;100468.60;2106222;83;21563;-78
2021/09/27 02:15:00;;;;;;;31.40;24.37;;;;;;;13.18;84.23;100470.28;2100478;83;21086;-78
2021/09/27 02:18:06;;;;;;;32.90;26.40;;;;;;;13.16;84.22;100470.44;2102869;83;21036;-79
2021/09/27 02:21:19;;;;;;;34.35;26.57;;;;;;;13.13;84.17;100468.64;2106810;83;21002;-80
2021/09/27 02:24:42;;;;;;;34.18;25.88;;;;;;;13.12;84.23;100476.28;2105560;83;21608;-79
2021/09/27 02:27:48;;;;;;;35.50;27.07;;;;;;;13.11;84.31;100468.80;2106275;83;21407;-78
2021/09/27 02:31:06;;;;;;;32.58;26.42;;;;;;;13.09;84.32;100473.97;2106458;83;21513;-78
2021/09/27 02:34:25;;;;;;;34.10;26.00;;;;;;;13.07;84.34;100465.34;2107292;83;21042;-79
2021/09/27 02:38:01;;;;;;;34.92;26.82;;;;;;;13.01;84.40;100465.55;2099965;83;21078;-79
2021/09/27 02:41:13;;;;;;;35.92;28.42;;;;;;;12.98;84.49;100456.56;2105564;83;20985;-77
2021/09/27 02:44:16;;;;;;;35.68;28.57;;;;;;;12.93;84.57;100450.42;2105283;83;21010;-77
2021/09/27 02:47:25;;;;;;;42.27;29.67;;;;;;;12.90;84.63;100450.77;2106521;83;21014;-77
2021/09/27 02:50:31;;;;;;;36.30;28.98;;;;;;;12.87;84.63;100447.13;2101606;83;21019;-77
2021/09/27 02:53:33;;;;;;;38.98;29.67;;;;;;;12.84;84.65;100446.14;2108120;83;21003;-78
2021/09/27 02:57:10;;;;;;;37.88;29.80;;;;;;;12.82;84.80;100449.47;2104493;83;21050;-78
2021/09/27 03:00:42;;;;;;;36.88;28.10;;;;;;;12.78;84.80;100450.80;2102397;83;21025;-79
2021/09/27 03:04:08;;;;;;;40.80;29.00;;;;;;;12.76;85.12;100447.51;2113243;83;21046;-77
2021/09/27 03:07:30;;;;;;;39.95;30.57;;;;;;;12.71;85.22;100442.69;2101381;83;21022;-79
2021/09/27 03:10:56;;;;;;;41.33;31.50;;;;;;;12.69;85.37;100439.36;2103825;83;21037;-77
2021/09/27 03:14:31;;;;;;;46.23;32.67;;;;;;;12.69;85.73;100434.55;2105604;83;21022;-77
2021/09/27 03:18:01;;;;;;;42.85;31.52;;;;;;;12.67;85.64;100441.39;2109519;83;21108;-78
2021/09/27 03:21:41;;;;;;;39.35;31.90;;;;;;;12.68;85.88;100444.88;2102597;83;21044;-77
2021/09/27 03:24:48;;;;;;;40.90;31.85;;;;;;;12.67;86.07;100440.06;2112007;83;21037;-78
2021/09/27 03:28:22;;;;;;;42.08;31.75;;;;;;;12.66;86.01;100441.55;2102857;83;20998;-79
2021/09/27 03:31:48;;;;;;;45.38;33.23;;;;;;;12.64;86.01;100440.41;2107488;83;21940;-79
2021/09/27 03:35:15;;;;;;;42.73;32.20;;;;;;;12.65;86.10;100457.20;2106342;83;20982;-80
2021/09/27 03:38:39;;;;;;;41.15;32.23;;;;;;;12.65;86.02;100450.55;2109220;83;21438;-78
2021/09/27 03:41:51;;;;;;;39.48;31.15;;;;;;;12.64;86.14;100446.20;2110265;83;20967;-80
2021/09/27 03:45:00;;;;;;;49.27;33.80;;;;;;;12.65;86.49;100435.40;2113449;83;21128;-77
2021/09/27 03:48:13;;;;;;;44.15;34.43;;;;;;;12.67;86.68;100429.88;2112129;83;21493;-77
2021/09/27 03:51:28;;;;;;;47.43;35.98;;;;;;;12.65;86.54;100432.73;2106916;83;21084;-77
2021/09/27 03:54:47;;;;;;;44.15;33.88;;;;;;;12.64;86.45;100430.23;2106077;83;20964;-77
2021/09/27 03:58:00;;;;;;;41.40;33.20;;;;;;;12.64;86.39;100424.91;2111778;83;20997;-78
2021/09/27 04:01:13;;;;;;;45.83;34.48;;;;;;;12.64;86.37;100420.91;2110722;83;21036;-79
2021/09/27 04:04:25;;;;;;;48.78;34.83;;;;;;;12.67;86.51;100422.75;2113304;83;21027;-78
2021/09/27 04:08:08;;;;;;;47.13;35.98;;;;;;;12.68;86.53;100419.58;2110419;83;21522;-77
2021/09/27 04:11:27;;;;;;;43.98;35.23;;;;;;;12.71;86.50;100419.23;2113149;83;20990;-77
2021/09/27 04:14:58;;;;;;;48.20;33.65;;;;;;;12.72;86.42;100422.22;2108083;83;21051;-78
2021/09/27 04:18:11;;;;;;;47.35;35.28;;;;;;;12.72;86.39;100420.88;2104443;83;21002;-79
2021/09/27 04:21:53;;;;;;;41.77;31.87;;;;;;;12.72;86.46;100416.38;2108709;83;21078;-78
2021/09/27 04:25:17;;;;;;;42.40;34.03;;;;;;;12.72;86.39;100418.22;2110525;83;21049;-77
2021/09/27 04:28:53;;;;;;;42.45;33.15;;;;;;;12.73;86.50;100415.91;2101184;83;21524;-78
2021/09/27 04:32:02;;;;;;;44.93;34.23;;;;;;;12.72;86.52;100422.22;2114382;83;21492;-77
2021/09/27 04:35:18;;;;;;;47.75;33.83;;;;;;;12.72;86.61;100417.71;2111019;83;20990;-76
2021/09/27 04:38:20;;;;;;;44.08;33.85;;;;;;;12.74;86.75;100416.22;2084339;83;20971;-77
2021/09/27 04:41:57;;;;;;;43.83;32.45;;;;;;;12.74;86.83;100421.55;2079906;84;20982;-77
2021/09/27 04:45:13;;;;;;;45.08;34.25;;;;;;;12.74;86.81;100417.05;2066276;84;21024;-79
2021/09/27 04:48:23;;;;;;;42.10;30.75;;;;;;;12.77;86.71;100421.20;2090192;84;21163;-78
2021/09/27 04:51:51;;;;;;;44.75;33.63;;;;;;;12.78;86.99;100423.70;2034437;84;21020;-78
2021/09/27 04:55:16;;;;;;;45.88;35.30;;;;;;;12.81;86.88;100429.19;2081421;84;21018;-81
2021/09/27 04:58:29;;;;;;;45.15;34.10;;;;;;;12.83;86.87;100431.15;2079870;84;21054;-78
2021/09/27 05:01:44;;;;;;;44.90;31.87;;;;;;;12.86;86.90;100436.13;2084923;84;20960;-77
2021/09/27 05:05:13;;;;;;;44.45;34.27;;;;;;;12.90;86.88;100436.63;2079173;84;20955;-79
2021/09/27 05:08:58;;;;;;;46.30;33.83;;;;;;;12.94;86.83;100436.09;2078089;84;20964;-78
2021/09/27 05:12:13;;;;;;;45.38;31.60;;;;;;;13.04;86.97;100435.06;2082001;84;21685;-79
2021/09/27 05:15:23;;;;;;;41.80;31.17;;;;;;;13.13;87.03;100438.00;2083413;84;21054;-77
2021/09/27 05:18:45;;;;;;;40.28;31.62;;;;;;;13.23;87.08;100431.92;2079614;83;21423;-78
2021/09/27 05:22:07;;;;;;;37.42;32.38;;;;;;;13.32;86.89;100422.07;2085605;84;21092;-75
2021/09/27 05:25:14;;;;;;;40.92;32.20;;;;;;;13.36;86.65;100422.88;2083801;84;21052;-79
2021/09/27 05:28:58;;;;;;;38.50;29.82;;;;;;;13.39;86.65;100431.85;2052884;84;21478;-80
2021/09/27 05:32:27;;;;;;;41.88;31.97;;;;;;;13.43;86.69;100438.50;2087796;84;21014;-77
2021/09/27 05:35:53;;;;;;;40.52;31.82;;;;;;;13.49;86.44;100439.63;2089096;83;21027;-77
2021/09/27 05:39:40;;;;;;;45.63;31.97;;;;;;;13.48;86.35;100439.80;2088045;84;21766;-76
2021/09/27 05:43:20;;;;;;;41.13;32.08;;;;;;;13.45;86.47;100440.47;2075034;84;20999;-77
2021/09/27 05:46:45;;;;;;;42.10;30.60;;;;;;;13.45;86.48;100442.31;2067482;84;20992;-76
2021/09/27 05:50:04;;;;;;;42.53;31.70;;;;;;;13.51;86.49;100442.09;2087262;84;21031;-76
2021/09/27 05:53:47;;;;;;;43.35;31.75;;;;;;;13.54;86.43;100445.73;2079696;84;21928;-76
2021/09/27 05:57:18;;;;;;;39.42;31.00;;;;;;;13.59;86.48;100443.38;2088385;84;21018;-78
2021/09/27 06:00:45;;;;;;;39.90;32.23;;;;;;;13.62;86.49;100436.34;2082823;84;20991;-77
2021/09/27 06:04:16;;;;;;;44.83;32.20;;;;;;;13.74;86.48;100441.60;2083914;84;21038;-78
2021/09/27 06:07:54;;;;;;;38.40;31.60;;;;;;;13.94;86.34;100446.41;2080003;83;21042;-77
2021/09/27 06:11:01;;;;;;;38.53;30.62;;;;;;;14.17;86.13;100451.21;2081802;84;21540;-78
2021/09/27 06:14:04;;;;;;;40.50;31.40;;;;;;;14.40;85.92;100452.98;2083590;83;21546;-78
2021/09/27 06:17:36;;;;;;;39.18;29.40;;;;;;;14.45;85.36;100458.61;2085913;84;20994;-75
2021/09/27 06:21:04;;;;;;;38.53;29.05;;;;;;;14.50;85.14;100457.52;2082194;84;21011;-76
2021/09/27 06:24:46;;;;;;;35.38;28.77;;;;;;;14.58;84.94;100453.45;2078696;84;21074;-77
2021/09/27 06:28:02;;;;;;;37.63;27.50;;;;;;;14.71;84.89;100450.15;2086692;84;21031;-80
2021/09/27 06:31:30;;;;;;;36.85;28.15;;;;;;;14.75;84.29;100450.94;2083480;84;20991;-77
2021/09/27 06:34:49;;;;;;;32.93;28.12;;;;;;;14.80;84.41;100453.86;2077277;84;21526;-77
2021/09/27 06:37:51;;;;;;;38.67;27.87;;;;;;;15.07;84.40;100462.21;2092854;83;21069;-77
2021/09/27 06:40:53;;;;;;;35.48;26.50;;;;;;;15.18;84.10;100455.05;2100971;83;21467;-77
2021/09/27 06:43:55;;;;;;;33.08;26.37;;;;;;;15.48;83.81;100453.59;2102680;83;21056;-76
2021/09/27 06:46:56;;;;;;;32.40;25.25;;;;;;;15.82;83.64;100459.59;2100765;83;21018;-79
2021/09/27 06:50:00;;;;;;;31.12;24.63;;;;;;;16.21;83.19;100455.58;2106246;83;21081;-78
2021/09/27 06:53:01;;;;;;;29.98;24.05;;;;;;;16.64;83.19;100455.94;2100319;83;21026;-77
2021/09/27 06:56:04;;;;;;;32.00;23.25;;;;;;;16.95;81.38;100452.33;2103916;83;21556;-77
2021/09/27 06:59:07;;;;;;;30.32;22.30;;;;;;;17.22;80.94;100449.72;2103062;83;21031;-77
2021/09/27 07:02:08;;;;;;;29.52;21.75;;;;;;;17.61;80.59;100449.48;2101482;83;20986;-77
2021/09/27 07:05:12;;;;;;;29.55;22.00;;;;;;;17.79;78.96;100443.02;2108344;83;21021;-76
2021/09/27 07:08:13;;;;;;;24.55;21.17;;;;;;;17.81;78.01;100449.02;2099640;83;20959;-79
2021/09/27 07:11:16;;;;;;;25.52;21.60;;;;;;;17.78;77.87;100454.80;2103577;83;21040;-77
2021/09/27 07:14:17;;;;;;;26.95;21.25;;;;;;;17.72;78.00;100452.09;2098113;83;21062;-75
2021/09/27 07:17:18;;;;;;;26.40;20.48;;;;;;;17.56;77.41;100450.61;2104406;83;20999;-78
2021/09/27 07:20:25;;;;;;;26.65;21.00;;;;;;;17.42;77.35;100446.56;2100939;83;20994;-75
2021/09/27 07:23:28;;;;;;;29.27;22.35;;;;;;;17.33;76.55;100444.28;2104580;83;21111;-77
2021/09/27 07:26:30;;;;;;;28.95;21.45;;;;;;;17.22;77.21;100439.81;2105284;83;21076;-76
2021/09/27 07:29:31;;;;;;;31.15;21.55;;;;;;;17.24;77.08;100435.60;2101286;83;21023;-77
2021/09/27 07:32:34;;;;;;;29.90;20.62;;;;;;;17.20;77.01;100434.34;2100235;83;20972;-79
2021/09/27 07:35:36;;;;;;;25.85;20.65;;;;;;;17.23;76.92;100430.76;2102047;83;21066;-77
2021/09/27 07:38:38;;;;;;;25.80;20.30;;;;;;;17.37;77.30;100434.30;2101583;83;21071;-77
2021/09/27 07:41:40;;;;;;;26.35;19.77;;;;;;;17.54;77.04;100428.52;2102623;83;20974;-78
2021/09/27 07:44:41;;;;;;;26.23;20.85;;;;;;;17.64;76.38;100441.84;2102188;83;21532;-79
2021/09/27 07:47:43;;;;;;;27.62;21.25;;;;;;;17.56;76.32;100434.52;2106659;83;21422;-76
2021/09/27 07:50:49;;;;;;;27.93;22.02;;;;;;;17.44;75.91;100431.09;2098282;83;21469;-74
2021/09/27 07:53:51;;;;;;;25.20;20.00;;;;;;;17.46;76.07;100441.64;2102666;82;21042;-74
2021/09/27 07:56:53;;;;;;;27.40;21.20;;;;;;;17.57;75.85;100439.69;2103156;83;21035;-74
2021/09/27 07:59:54;;;;;;;26.35;20.72;;;;;;;17.67;76.19;100440.61;2106956;83;20942;-74
2021/09/27 08:02:56;;;;;;;26.85;21.73;;;;;;;17.65;75.39;100442.67;2100607;83;20968;-74
2021/09/27 08:05:57;;;;;;;28.40;22.42;;;;;;;17.46;75.54;100434.93;2103344;83;21685;-74
2021/09/27 08:08:59;;;;;;;27.58;21.90;;;;;;;17.39;75.48;100434.08;2105072;83;21014;-74
2021/09/27 08:12:00;;;;;;;31.23;22.65;;;;;;;17.37;75.68;100432.11;2101961;83;20978;-75
2021/09/27 08:15:04;;;;;;;30.10;23.70;;;;;;;17.39;75.61;100432.73;2110441;83;21024;-74
2021/09/27 08:18:09;;;;;;;29.63;21.60;;;;;;;17.47;75.54;100431.20;2105104;83;21039;-74
2021/09/27 08:21:15;;;;;;;26.68;22.13;;;;;;;17.64;75.37;100427.09;2107706;83;21033;-74
2021/09/27 08:24:18;;;;;;;27.67;21.65;;;;;;;17.83;74.98;100427.34;2102214;83;21003;-74
2021/09/27 08:27:19;;;;;;;28.45;21.60;;;;;;;17.81;74.63;100423.52;2099867;83;21034;-75
2021/09/27 08:30:32;;;;;;;22.98;19.87;;;;;;;17.94;75.30;100428.06;2105665;83;21043;-73
2021/09/27 08:33:34;;;;;;;26.77;20.95;;;;;;;18.06;74.01;100432.28;2103514;83;21392;-74
2021/09/27 08:36:36;;;;;;;27.25;20.70;;;;;;;18.13;74.85;100423.69;2099671;83;20951;-75
2021/09/27 08:39:38;;;;;;;26.27;19.52;;;;;;;18.46;74.49;100430.87;2105359;83;21334;-74
2021/09/27 08:42:41;;;;;;;21.57;18.85;;;;;;;18.73;74.22;100423.03;2112692;83;21043;-74
2021/09/27 08:45:43;;;;;;;21.68;18.32;;;;;;;18.98;73.69;100419.66;2107737;83;21504;-75
2021/09/27 08:49:12;;;;;;;22.35;17.85;;;;;;;19.03;72.41;100417.12;2106821;83;21336;-73
2021/09/27 08:52:17;;;;;;;21.37;17.75;;;;;;;19.10;72.17;100413.89;2100350;83;21080;-73
2021/09/27 08:55:20;;;;;;;20.95;17.35;;;;;;;19.26;71.34;100421.45;2098440;83;21675;-76
2021/09/27 08:58:44;;;;;;;21.23;16.32;;;;;;;19.33;71.69;100411.16;2104491;83;21045;-74
2021/09/27 09:02:10;;;;;;;22.30;17.40;;;;;;;19.33;70.43;100423.27;2102184;83;21593;-72
2021/09/27 09:05:49;;;;;;;20.25;16.30;;;;;;;19.19;70.04;100412.58;2102571;83;21173;-72
2021/09/27 09:09:11;;;;;;;20.45;15.95;;;;;;;19.36;71.07;100415.58;2107306;83;21524;-74
2021/09/27 09:12:30;;;;;;;22.95;17.30;;;;;;;19.57;70.82;100422.48;2097180;83;21010;-74
2021/09/27 09:15:30;;;;;;;21.23;17.25;;;;;;;19.63;69.01;100422.95;2101598;83;21080;-74
2021/09/27 09:18:46;;;;;;;21.90;18.02;;;;;;;19.71;69.70;100415.17;2106729;83;20980;-74
2021/09/27 09:21:53;;;;;;;19.50;17.23;;;;;;;19.62;68.81;100416.44;2107118;83;21062;-74
2021/09/27 09:24:56;;;;;;;25.68;18.25;;;;;;;19.60;68.97;100420.70;2105634;83;21050;-75
2021/09/27 09:28:01;;;;;;;23.95;18.55;;;;;;;19.70;68.96;100422.92;2107907;83;20998;-75
2021/09/27 09:31:16;;;;;;;21.87;17.12;;;;;;;19.65;68.44;100419.56;2102758;83;21069;-75
2021/09/27 09:34:25;;;;;;;23.38;18.12;;;;;;;19.70;69.00;100422.39;2107881;83;21058;-75
2021/09/27 09:37:43;;;;;;;21.25;18.48;;;;;;;19.74;69.08;100424.65;2111671;83;21046;-74
2021/09/27 09:40:57;;;;;;;21.73;17.62;;;;;;;19.77;69.93;100419.67;2100318;83;21062;-75
2021/09/27 09:44:00;;;;;;;24.52;17.95;;;;;;;19.88;68.91;100412.75;2104779;83;21516;-75
2021/09/27 09:47:25;;;;;;;20.52;17.32;;;;;;;19.89;68.85;100404.97;2079577;83;21014;-75
2021/09/27 09:50:30;;;;;;;22.07;17.67;;;;;;;20.02;69.48;100411.58;2105085;83;21073;-76
2021/09/27 09:53:36;;;;;;;20.12;16.17;;;;;;;20.15;69.01;100410.09;2104714;83;21103;-75
2021/09/27 09:56:42;;;;;;;24.27;17.35;;;;;;;20.20;68.10;100411.30;2104617;83;21014;-75
2021/09/27 10:00:10;;;;;;;22.48;17.42;;;;;;;20.33;68.41;100415.22;2098629;83;21026;-76
2021/09/27 10:03:17;;;;;;;23.18;18.45;;;;;;;20.35;67.92;100405.02;2079607;83;21026;-75
2021/09/27 10:06:39;;;;;;;21.70;17.77;;;;;;;20.43;68.41;100407.41;2096800;83;21032;-75
2021/09/27 10:09:57;;;;;;;25.65;17.82;;;;;;;20.39;66.15;100400.84;2102536;83;21065;-76
2021/09/27 10:13:04;;;;;;;22.70;17.80;;;;;;;20.29;67.92;100409.95;2106531;83;21561;-75
2021/09/27 10:16:16;;;;;;;19.15;15.83;;;;;;;20.36;67.29;100405.34;2101826;83;21027;-74
2021/09/27 10:19:37;;;;;;;22.70;17.00;;;;;;;20.40;66.82;100401.66;2101372;83;21060;-73
2021/09/27 10:22:39;;;;;;;21.90;18.48;;;;;;;20.46;66.64;100401.58;2109711;83;21026;-74
2021/09/27 10:25:46;;;;;;;20.90;16.95;;;;;;;20.39;66.95;100395.45;2109728;83;21119;-76
2021/09/27 10:28:51;;;;;;;23.77;18.37;;;;;;;20.31;66.17;100393.87;2106652;83;20975;-74
2021/09/27 10:32:25;;;;;;;18.50;16.23;;;;;;;20.30;67.22;100389.54;2105426;83;21438;-73
2021/09/27 10:35:45;;;;;;;20.85;17.52;;;;;;;20.30;66.23;100403.02;2105558;83;21101;-74
2021/09/27 10:38:58;;;;;;;21.60;16.85;;;;;;;20.04;67.15;100391.14;2097683;83;21048;-73
2021/09/27 10:42:03;;;;;;;20.37;16.67;;;;;;;20.01;67.19;100392.94;2086387;84;21070;-75
2021/09/27 10:45:08;;;;;;;22.27;17.48;;;;;;;20.03;67.13;100391.67;2086491;84;21015;-74
2021/09/27 10:48:10;;;;;;;19.42;16.95;;;;;;;20.12;67.37;100392.20;2089025;84;21627;-74
2021/09/27 10:51:12;;;;;;;21.97;17.60;;;;;;;20.36;67.72;100391.86;2065656;84;21521;-75
2021/09/27 10:54:41;;;;;;;20.12;16.20;;;;;;;20.53;65.70;100384.84;2087032;84;20991;-73
2021/09/27 10:57:54;;;;;;;19.57;16.07;;;;;;;20.44;66.06;100388.88;2088210;83;21065;-74
2021/09/27 11:00:56;;;;;;;20.50;18.30;;;;;;;20.26;66.39;100386.98;2085683;84;21030;-74
2021/09/27 11:03:59;;;;;;;22.37;17.32;;;;;;;20.27;66.61;100387.80;2085904;84;21041;-74
2021/09/27 11:07:18;;;;;;;19.98;15.55;;;;;;;20.35;66.80;100370.80;2085567;84;21073;-75
2021/09/27 11:10:48;;;;;;;20.77;17.90;;;;;;;20.32;65.92;100387.95;2085799;84;21053;-74
2021/09/27 11:13:50;;;;;;;23.25;18.48;;;;;;;20.04;66.32;100386.58;2033733;86;21009;-73
2021/09/27 11:17:03;;;;;;;21.35;18.17;;;;;;;20.06;66.54;100383.67;2087880;84;21027;-73
2021/09/27 11:20:42;;;;;;;20.90;16.73;;;;;;;20.18;66.35;100383.75;2082460;84;20979;-74
2021/09/27 11:23:49;;;;;;;23.57;17.07;;;;;;;20.39;67.13;100379.28;2085943;84;21470;-74
2021/09/27 11:27:17;;;;;;;20.82;16.07;;;;;;;20.64;66.59;100381.92;2082008;83;21034;-74
2021/09/27 11:30:41;;;;;;;21.52;17.32;;;;;;;20.77;65.67;100379.03;2083672;84;20992;-74
2021/09/27 11:33:50;;;;;;;20.92;17.30;;;;;;;20.71;65.21;100383.17;2081508;83;21074;-75
2021/09/27 11:37:14;;;;;;;21.85;17.02;;;;;;;20.67;65.90;100380.64;2085809;84;21034;-74
2021/09/27 11:40:27;;;;;;;22.85;17.62;;;;;;;20.79;66.50;100382.86;2079965;84;21016;-74
2021/09/27 11:43:49;;;;;;;20.35;16.93;;;;;;;20.95;65.93;100371.45;2085566;84;21030;-76
2021/09/27 11:47:15;;;;;;;19.48;16.37;;;;;;;21.04;65.61;100376.81;2071835;84;21533;-76
2021/09/27 11:50:33;;;;;;;20.57;16.93;;;;;;;20.92;64.58;100382.70;2088765;84;20987;-75
2021/09/27 11:54:05;;;;;;;19.62;15.50;;;;;;;20.65;65.62;100384.09;2086021;84;21012;-74
2021/09/27 11:57:38;;;;;;;21.62;17.42;;;;;;;20.91;66.14;100381.56;2088028;84;21040;-75
2021/09/27 12:00:57;;;;;;;20.90;17.77;;;;;;;21.20;65.50;100381.24;2085875;84;21069;-72
2021/09/27 12:04:04;;;;;;;21.87;18.85;;;;;;;21.19;65.27;100371.52;2086991;84;21038;-75
2021/09/27 12:07:11;;;;;;;22.02;17.48;;;;;;;21.11;65.34;100364.56;2087793;84;21090;-74
2021/09/27 12:10:30;;;;;;;25.08;16.90;;;;;;;21.03;64.33;100364.38;2085495;84;21564;-74
2021/09/27 12:13:39;;;;;;;20.77;18.40;;;;;;;20.74;64.39;100366.54;2080813;84;21074;-74
2021/09/27 12:16:47;;;;;;;22.45;20.02;;;;;;;20.62;65.33;100365.67;2086836;84;21006;-75
2021/09/27 12:19:57;;;;;;;22.22;18.23;;;;;;;20.64;65.58;100363.55;2083783;84;21144;-75
2021/09/27 12:23:02;;;;;;;21.83;18.47;;;;;;;20.57;65.85;100364.46;2084814;84;21482;-74
2021/09/27 12:26:03;;;;;;;23.65;19.77;;;;;;;20.38;65.32;100334.50;2083325;84;21891;-75
2021/09/27 12:29:21;;;;;;;22.30;18.12;;;;;;;20.48;66.22;100361.75;2085071;84;20955;-74
2021/09/27 12:32:42;;;;;;;22.25;18.92;;;;;;;20.47;65.99;100354.73;2082713;84;21510;-75
2021/09/27 12:35:47;;;;;;;24.87;20.02;;;;;;;20.43;66.28;100360.25;2080072;84;21057;-75
2021/09/27 12:38:53;;;;;;;19.92;17.60;;;;;;;20.39;66.46;100357.72;2083572;83;21051;-75
2021/09/27 12:41:58;;;;;;;21.17;18.95;;;;;;;20.38;66.14;100358.75;2085849;84;21011;-74
2021/09/27 12:45:30;;;;;;;25.57;18.05;;;;;;;20.37;66.44;100358.47;2089085;84;21028;-75
2021/09/27 12:48:39;;;;;;;23.18;19.60;;;;;;;20.36;66.23;100352.79;2085844;84;20987;-75
2021/09/27 12:51:45;;;;;;;26.50;19.05;;;;;;;20.41;66.88;100360.99;2085467;84;21094;-75
2021/09/27 12:54:51;;;;;;;25.82;18.60;;;;;;;20.46;66.46;100360.33;2086949;83;21373;-74
2021/09/27 12:58:00;;;;;;;21.37;17.92;;;;;;;20.50;66.81;100358.84;2084063;84;21032;-74
2021/09/27 13:01:06;;;;;;;21.82;18.87;;;;;;;20.51;66.80;100357.25;2083850;84;21110;-75
2021/09/27 13:04:19;;;;;;;20.90;17.15;;;;;;;20.59;66.59;100347.55;2086481;84;21041;-74
2021/09/27 13:07:21;;;;;;;23.52;18.50;;;;;;;20.66;66.70;100352.02;2083494;84;21006;-75
2021/09/27 13:10:37;;;;;;;24.30;18.40;;;;;;;20.55;66.64;100339.63;2084038;84;21030;-75
2021/09/27 13:13:39;;;;;;;22.52;18.40;;;;;;;20.56;66.33;100341.80;2088193;84;21593;-76
2021/09/27 13:16:41;;;;;;;21.17;16.90;;;;;;;20.57;66.92;100336.16;2087258;84;20999;-76
2021/09/27 13:19:50;;;;;;;19.67;17.25;;;;;;;20.68;66.94;100336.45;2086836;84;21030;-75
2021/09/27 13:22:52;;;;;;;21.90;17.95;;;;;;;20.66;66.80;100330.45;2083667;84;20982;-75
2021/09/27 13:25:58;;;;;;;20.85;18.17;;;;;;;20.58;66.26;100325.69;2090799;84;21061;-74
2021/09/27 13:29:04;;;;;;;19.27;17.27;;;;;;;20.53;66.41;100320.16;2085708;84;21155;-75
2021/09/27 13:32:17;;;;;;;21.62;15.93;;;;;;;20.55;66.74;100318.56;2083516;84;21057;-75
2021/09/27 13:35:31;;;;;;;19.45;16.95;;;;;;;20.53;66.28;100318.81;2090130;84;20995;-76
2021/09/27 13:38:37;;;;;;;20.97;16.77;;;;;;;20.46;66.48;100316.67;2086295;83;21147;-76
2021/09/27 13:41:50;;;;;;;18.30;16.23;;;;;;;20.40;66.96;100316.24;2081496;83;21034;-76
2021/09/27 13:44:54;;;;;;;20.45;17.25;;;;;;;20.49;67.11;100313.52;2100171;83;21053;-79
2021/09/27 13:47:55;;;;;;;18.40;15.55;;;;;;;20.41;66.67;100307.63;2105754;83;21501;-78
2021/09/27 13:50:58;;;;;;;19.77;15.70;;;;;;;20.39;67.31;100311.91;2102530;83;21449;-77
2021/09/27 13:54:05;;;;;;;19.00;15.23;;;;;;;20.38;66.96;100309.75;2102824;83;21027;-75
2021/09/27 13:57:10;;;;;;;23.90;16.65;;;;;;;20.39;67.34;100306.52;2100735;83;21055;-76
2021/09/27 14:00:13;;;;;;;19.37;16.27;;;;;;;20.37;67.31;100307.27;2104675;83;21030;-76
2021/09/27 14:03:14;;;;;;;19.02;15.58;;;;;;;20.37;67.48;100308.61;2101969;83;20974;-75
2021/09/27 14:06:20;;;;;;;18.40;15.60;;;;;;;20.41;67.29;100303.05;2108321;83;21006;-76
2021/09/27 14:09:22;;;;;;;19.92;15.63;;;;;;;20.35;67.12;100306.66;2104370;83;21045;-74
2021/09/27 14:12:23;;;;;;;21.15;15.95;;;;;;;20.30;67.38;100307.36;2098402;83;20981;-75
2021/09/27 14:15:24;;;;;;;18.12;15.35;;;;;;;20.28;67.33;100313.48;2107861;83;21016;-75
2021/09/27 14:18:30;;;;;;;23.18;15.10;;;;;;;20.23;67.19;100312.52;2096391;83;21526;-75
2021/09/27 14:21:34;;;;;;;20.20;15.63;;;;;;;20.22;67.58;100314.39;2106340;83;21109;-75
2021/09/27 14:24:36;;;;;;;18.05;15.40;;;;;;;20.24;67.74;100311.46;2098726;83;21089;-76
2021/09/27 14:27:38;;;;;;;15.93;14.28;;;;;;;20.28;67.65;100316.72;2102060;83;21470;-76
2021/09/27 14:30:41;;;;;;;22.10;15.63;;;;;;;20.31;67.74;100318.42;2097331;83;20986;-76
2021/09/27 14:33:44;;;;;;;23.52;16.25;;;;;;;20.31;67.85;100311.69;2098879;83;21018;-76
2021/09/27 14:36:52;;;;;;;19.77;16.42;;;;;;;20.36;67.95;100311.84;2104038;83;21038;-75
2021/09/27 14:39:57;;;;;;;17.75;15.48;;;;;;;20.38;67.84;100314.29;2091147;83;21023;-74